createdAt,value
2019-02-14T00:01:13.553Z,7.50
2019-02-14T00:03:45.628Z,7.40
2019-02-14T00:06:18.133Z,7.50
2019-02-14T00:08:50.312Z,7.40
2019-02-14T00:11:22.748Z,7.40
2019-02-14T00:13:54.922Z,7.40
2019-02-14T00:16:27.016Z,7.40
2019-02-14T00:18:59.215Z,7.40
2019-02-14T00:21:31.422Z,7.40
2019-02-14T00:24:03.692Z,7.40
2019-02-14T00:26:35.920Z,7.40
2019-02-14T00:29:08.396Z,7.50
2019-02-14T00:31:40.636Z,7.50
2019-02-14T00:34:12.851Z,7.50
2019-02-14T00:36:45.177Z,7.50
2019-02-14T00:39:17.598Z,7.50
2019-02-14T00:41:49.816Z,7.50
2019-02-14T00:44:21.927Z,7.40
2019-02-14T00:46:54.631Z,7.50
2019-02-14T00:49:27.186Z,7.50
2019-02-14T00:51:59.567Z,7.40
2019-02-14T00:54:31.743Z,7.40
2019-02-14T00:57:04.189Z,7.40
2019-02-14T00:59:36.367Z,7.50
2019-02-14T01:02:09.123Z,7.40
2019-02-14T01:04:41.575Z,7.40
2019-02-14T01:07:16.025Z,7.40
2019-02-14T01:09:48.224Z,7.40
2019-02-14T01:12:20.732Z,7.40
2019-02-14T01:14:53.375Z,7.30
2019-02-14T01:17:25.735Z,7.30
2019-02-14T01:19:58.107Z,7.30
2019-02-14T01:22:30.395Z,7.40
2019-02-14T01:25:03.049Z,7.40
2019-02-14T01:27:35.472Z,7.40
2019-02-14T01:30:08.789Z,7.30
2019-02-14T01:32:40.895Z,7.30
2019-02-14T01:35:13.361Z,7.30
2019-02-14T01:37:45.508Z,7.20
2019-02-14T01:40:17.694Z,7.30
2019-02-14T01:42:49.793Z,7.30
2019-02-14T01:45:22.052Z,7.20
2019-02-14T01:47:54.159Z,7.30
2019-02-14T01:50:26.359Z,7.30
2019-02-14T01:52:58.580Z,7.30
2019-02-14T01:55:32.565Z,7.30
2019-02-14T01:58:05.632Z,7.20
2019-02-14T02:00:37.720Z,7.20
2019-02-14T02:03:10.292Z,7.20
2019-02-14T02:05:50.441Z,7.20
2019-02-14T02:08:16.770Z,7.20
2019-02-14T02:10:49.142Z,7.20
2019-02-14T02:13:21.840Z,7.20
2019-02-14T02:15:54.315Z,7.30
2019-02-14T02:18:26.874Z,7.20
2019-02-14T02:20:59.322Z,7.20
2019-02-14T02:23:31.417Z,7.20
2019-02-14T02:26:03.695Z,7.40
2019-02-14T02:28:35.824Z,7.30
2019-02-14T02:31:08.200Z,7.30
2019-02-14T02:33:41.195Z,7.20
2019-02-14T02:36:13.464Z,7.20
2019-02-14T02:38:45.664Z,7.30
2019-02-14T02:41:18.041Z,7.30
2019-02-14T02:43:50.430Z,7.30
2019-02-14T02:46:22.602Z,7.30
2019-02-14T02:48:55.132Z,7.30
2019-02-14T02:51:27.364Z,7.30
2019-02-14T02:53:59.462Z,7.30
2019-02-14T02:56:31.667Z,7.40
2019-02-14T02:59:03.883Z,7.40
2019-02-14T03:01:36.064Z,7.30
2019-02-14T03:04:08.466Z,7.30
2019-02-14T03:06:40.935Z,7.30
2019-02-14T03:09:13.545Z,7.20
2019-02-14T03:11:46.090Z,7.30
2019-02-14T03:14:18.629Z,7.30
2019-02-14T03:16:51.280Z,7.30
2019-02-14T03:19:23.485Z,7.30
2019-02-14T03:21:55.802Z,7.30
2019-02-14T03:24:28.029Z,7.30
2019-02-14T03:27:00.307Z,7.40
2019-02-14T03:29:32.429Z,7.60
2019-02-14T03:32:04.627Z,7.50
2019-02-14T03:34:37.038Z,7.40
2019-02-14T03:37:09.624Z,7.40
2019-02-14T03:39:41.747Z,7.40
2019-02-14T03:42:13.918Z,7.40
2019-02-14T03:44:46.154Z,7.40
2019-02-14T03:47:18.442Z,7.50
2019-02-14T03:49:50.659Z,7.40
2019-02-14T03:52:22.828Z,7.30
2019-02-14T03:54:55.520Z,7.40
2019-02-14T03:57:28.445Z,7.40
2019-02-14T04:00:00.955Z,7.40
2019-02-14T04:02:33.247Z,7.30
2019-02-14T04:05:05.902Z,7.30
2019-02-14T04:07:38.504Z,7.20
2019-02-14T04:10:11.130Z,7.20
2019-02-14T04:12:43.308Z,7.20
2019-02-14T04:15:15.761Z,7.20
2019-02-14T04:17:48.172Z,7.10
2019-02-14T04:20:20.736Z,7.20
2019-02-14T04:22:52.932Z,7.20
2019-02-14T04:25:25.247Z,7.20
2019-02-14T04:27:57.308Z,7.20
2019-02-14T04:30:29.932Z,7.20
2019-02-14T04:33:02.205Z,7.20
2019-02-14T04:35:35.029Z,7.30
2019-02-14T04:38:07.245Z,7.30
2019-02-14T04:40:39.814Z,7.30
2019-02-14T04:43:12.028Z,7.40
2019-02-14T04:45:44.230Z,7.40
2019-02-14T04:48:16.984Z,7.30
2019-02-14T04:50:49.346Z,7.30
2019-02-14T04:53:21.449Z,7.30
2019-02-14T04:55:54.202Z,7.20
2019-02-14T04:58:26.597Z,7.20
2019-02-14T05:00:58.912Z,7.20
2019-02-14T05:03:31.256Z,7.30
2019-02-14T05:06:03.629Z,7.30
2019-02-14T05:08:35.961Z,7.40
2019-02-14T05:11:08.333Z,7.40
2019-02-14T05:13:40.585Z,7.40
2019-02-14T05:16:12.800Z,7.40
2019-02-14T05:18:45.639Z,7.40
2019-02-14T05:21:17.977Z,7.40
2019-02-14T05:23:50.675Z,7.30
2019-02-14T05:26:23.010Z,7.30
2019-02-14T05:28:55.126Z,7.40
2019-02-14T05:31:27.360Z,7.30
2019-02-14T05:33:59.529Z,7.30
2019-02-14T05:36:31.901Z,7.40
2019-02-14T05:39:04.796Z,7.40
2019-02-14T05:41:36.894Z,7.50
2019-02-14T05:44:09.378Z,7.50
2019-02-14T05:46:41.485Z,7.50
2019-02-14T05:49:14.100Z,7.40
2019-02-14T05:51:46.400Z,7.40
2019-02-14T05:54:18.737Z,7.50
2019-02-14T05:56:51.056Z,7.60
2019-02-14T05:59:23.263Z,7.60
2019-02-14T06:01:55.475Z,7.60
2019-02-14T06:04:27.652Z,7.50
2019-02-14T06:07:01.287Z,7.50
2019-02-14T06:09:33.637Z,7.40
2019-02-14T06:12:06.197Z,7.40
2019-02-14T06:14:38.299Z,7.40
2019-02-14T06:17:10.818Z,7.40
2019-02-14T06:19:43.292Z,7.40
2019-02-14T06:24:48.156Z,7.30
2019-02-14T06:27:20.533Z,7.30
2019-02-14T06:29:53.188Z,7.30
2019-02-14T06:32:25.481Z,7.30
2019-02-14T06:34:57.700Z,7.30
2019-02-14T06:37:30.253Z,7.30
2019-02-14T06:40:03.089Z,7.40
2019-02-14T06:42:35.666Z,7.30
2019-02-14T06:45:09.981Z,7.40
2019-02-14T06:47:42.197Z,7.40
2019-02-14T06:50:15.046Z,7.40
2019-02-14T06:52:47.269Z,7.40
2019-02-14T06:55:19.476Z,7.30
2019-02-14T06:57:52.093Z,7.40
2019-02-14T07:00:24.945Z,7.40
2019-02-14T07:02:57.720Z,7.40
2019-02-14T07:05:29.904Z,7.40
2019-02-14T07:08:02.144Z,7.40
2019-02-14T07:10:34.341Z,7.50
2019-02-14T07:13:06.773Z,7.60
2019-02-14T07:15:38.981Z,7.60
2019-02-14T07:18:11.225Z,7.50
2019-02-14T07:20:43.309Z,7.50
2019-02-14T07:23:15.561Z,7.50
2019-02-14T07:25:48.036Z,7.50
2019-02-14T07:28:20.509Z,7.50
2019-02-14T07:30:53.271Z,7.50
2019-02-14T07:33:25.877Z,7.60
2019-02-14T07:35:58.373Z,7.60
2019-02-14T07:38:30.732Z,7.70
2019-02-14T07:41:02.944Z,7.60
2019-02-14T07:43:35.464Z,7.70
2019-02-14T07:46:07.654Z,7.70
2019-02-14T07:48:39.873Z,7.70
2019-02-14T07:51:12.264Z,7.60
2019-02-14T07:53:44.788Z,7.50
2019-02-14T07:56:17.028Z,7.60
2019-02-14T07:58:49.450Z,7.60
2019-02-14T08:01:21.957Z,7.60
2019-02-14T08:03:54.306Z,7.60
2019-02-14T08:06:26.850Z,7.60
2019-02-14T08:08:59.297Z,7.60
2019-02-14T08:11:31.481Z,7.60
2019-02-14T08:14:03.785Z,7.60
2019-02-14T08:16:35.904Z,7.60
2019-02-14T08:19:08.174Z,7.70
2019-02-14T08:21:40.260Z,7.70
2019-02-14T08:24:13.038Z,7.80
2019-02-14T08:26:45.909Z,7.90
2019-02-14T08:29:18.045Z,7.90
2019-02-14T08:31:50.144Z,7.80
2019-02-14T08:34:22.285Z,7.80
2019-02-14T08:36:54.720Z,7.70
2019-02-14T08:39:26.956Z,7.70
2019-02-14T08:41:59.237Z,7.80
2019-02-14T08:44:31.713Z,7.80
2019-02-14T08:47:04.010Z,7.80
2019-02-14T08:49:36.209Z,7.90
2019-02-14T08:52:08.462Z,7.90
2019-02-14T08:54:41.231Z,7.80
2019-02-14T08:57:13.985Z,7.80
2019-02-14T08:59:46.569Z,7.90
2019-02-14T09:02:18.949Z,7.90
2019-02-14T09:04:51.110Z,8.10
2019-02-14T09:07:23.639Z,8.10
2019-02-14T09:09:55.986Z,8.30
2019-02-14T09:12:28.320Z,8.20
2019-02-14T09:15:00.704Z,8.20
2019-02-14T09:17:33.216Z,8.40
2019-02-14T09:20:07.353Z,8.30
2019-02-14T09:22:39.572Z,8.30
2019-02-14T09:25:12.049Z,8.30
2019-02-14T09:27:44.842Z,8.20
2019-02-14T09:30:17.037Z,8.20
2019-02-14T09:32:49.469Z,8.30
2019-02-14T09:35:21.925Z,8.30
2019-02-14T09:38:02.772Z,8.40
2019-02-14T09:40:28.453Z,8.50
2019-02-14T09:43:00.823Z,8.30
2019-02-14T09:45:33.058Z,8.50
2019-02-14T09:48:05.741Z,8.50
2019-02-14T09:50:38.459Z,8.50
2019-02-14T09:53:10.741Z,8.70
2019-02-14T09:55:43.013Z,8.70
2019-02-14T09:58:15.668Z,8.70
2019-02-14T10:00:48.402Z,8.80
2019-02-14T10:03:20.482Z,8.90
2019-02-14T10:05:52.876Z,8.90
2019-02-14T10:08:25.218Z,8.90
2019-02-14T10:10:57.889Z,8.80
2019-02-14T10:13:30.162Z,8.90
2019-02-14T10:16:02.486Z,8.80
2019-02-14T10:18:34.709Z,8.80
2019-02-14T10:21:07.127Z,8.70
2019-02-14T10:23:39.887Z,8.60
2019-02-14T10:26:12.077Z,8.70
2019-02-14T10:28:44.426Z,8.70
2019-02-14T10:31:16.825Z,8.80
2019-02-14T10:33:48.998Z,8.90
2019-02-14T10:36:21.479Z,8.90
2019-02-14T10:38:54.067Z,8.90
2019-02-14T10:41:26.597Z,9.20
2019-02-14T10:43:59.286Z,9.20
2019-02-14T10:46:31.781Z,9.10
2019-02-14T10:49:04.184Z,9.00
2019-02-14T10:51:36.592Z,9.10
2019-02-14T10:54:08.990Z,9.20
2019-02-14T10:56:41.517Z,9.30
2019-02-14T10:59:13.844Z,9.20
2019-02-14T11:01:46.503Z,9.00
2019-02-14T11:04:18.936Z,9.10
2019-02-14T11:06:51.572Z,9.20
2019-02-14T11:09:23.947Z,9.60
2019-02-14T11:11:56.501Z,9.50
2019-02-14T11:14:29.603Z,9.50
2019-02-14T11:17:02.127Z,9.30
2019-02-14T11:19:34.754Z,9.40
2019-02-14T11:22:07.651Z,9.40
2019-02-14T11:24:39.935Z,9.20
2019-02-14T11:27:12.169Z,9.30
2019-02-14T11:29:44.529Z,9.60
2019-02-14T11:32:16.879Z,9.80
2019-02-14T11:34:49.760Z,9.80
2019-02-14T11:37:23.104Z,9.80
2019-02-14T11:39:55.459Z,10.00
2019-02-14T11:42:30.066Z,10.00
2019-02-14T11:45:02.399Z,10.10
2019-02-14T11:47:34.765Z,9.90
2019-02-14T11:50:08.176Z,10.00
2019-02-14T11:52:40.425Z,10.00
2019-02-14T11:55:12.713Z,9.80
2019-02-14T11:57:45.357Z,9.80
2019-02-14T12:00:20.369Z,9.90
2019-02-14T12:02:55.541Z,9.90
2019-02-14T12:05:26.956Z,9.90
2019-02-14T12:07:59.660Z,9.80
2019-02-14T12:10:32.418Z,9.90
2019-02-14T12:13:05.271Z,9.80
2019-02-14T12:15:37.396Z,9.80
2019-02-14T12:18:09.648Z,9.80
2019-02-14T12:20:41.910Z,9.70
2019-02-14T12:23:14.263Z,9.80
2019-02-14T12:25:46.706Z,9.90
2019-02-14T12:28:19.135Z,9.80
2019-02-14T12:30:51.534Z,9.90
2019-02-14T12:33:23.747Z,9.80
2019-02-14T12:35:55.888Z,9.80
2019-02-14T12:38:28.113Z,9.90
2019-02-14T12:41:00.350Z,9.90
2019-02-14T12:43:32.912Z,10.00
2019-02-14T12:46:05.153Z,10.00
2019-02-14T12:48:37.629Z,10.00
2019-02-14T12:51:09.931Z,10.20
2019-02-14T12:53:42.341Z,10.20
2019-02-14T12:56:14.694Z,10.20
2019-02-14T12:58:46.891Z,10.30
2019-02-14T13:01:19.334Z,10.20
2019-02-14T13:03:51.780Z,10.20
2019-02-14T13:06:24.468Z,10.30
2019-02-14T13:08:56.837Z,10.20
2019-02-14T13:11:29.364Z,10.20
2019-02-14T13:14:01.496Z,10.20
2019-02-14T13:16:33.996Z,10.30
2019-02-14T13:19:06.575Z,10.40
2019-02-14T13:21:39.240Z,10.40
2019-02-14T13:24:11.798Z,10.40
2019-02-14T13:26:44.857Z,10.30
2019-02-14T13:29:17.206Z,10.40
2019-02-14T13:31:49.855Z,10.40
2019-02-14T13:34:22.159Z,10.40
2019-02-14T13:37:01.350Z,10.50
2019-02-14T13:39:29.849Z,10.50
2019-02-14T13:42:02.683Z,10.40
2019-02-14T13:44:34.929Z,10.50
2019-02-14T13:47:07.021Z,10.60
2019-02-14T13:49:39.333Z,10.40
2019-02-14T13:52:11.846Z,10.30
2019-02-14T13:54:44.353Z,10.40
2019-02-14T13:57:16.684Z,10.40
2019-02-14T13:59:49.031Z,10.40
2019-02-14T14:02:21.821Z,10.50
2019-02-14T14:04:54.858Z,10.50
2019-02-14T14:07:27.142Z,10.70
2019-02-14T14:09:59.477Z,10.70
2019-02-14T14:12:31.701Z,10.60
2019-02-14T14:15:04.516Z,10.80
2019-02-14T14:17:37.158Z,10.70
2019-02-14T14:20:09.640Z,10.50
2019-02-14T14:22:42.061Z,10.60
2019-02-14T14:25:14.310Z,10.60
2019-02-14T14:27:46.648Z,10.60
2019-02-14T14:30:18.918Z,10.60
2019-02-14T14:32:51.241Z,10.60
2019-02-14T14:35:23.330Z,10.60
2019-02-14T14:37:55.546Z,10.60
2019-02-14T14:40:28.160Z,10.60
2019-02-14T14:43:23.041Z,10.70
2019-02-14T14:46:03.194Z,10.70
2019-02-14T14:48:38.373Z,10.70
2019-02-14T14:51:10.517Z,10.60
2019-02-14T14:53:42.648Z,10.60
2019-02-14T14:56:14.872Z,10.60
2019-02-14T14:58:47.309Z,10.60
2019-02-14T15:01:19.919Z,10.50
2019-02-14T15:03:52.334Z,10.50
2019-02-14T15:06:24.383Z,10.50
2019-02-14T15:08:56.761Z,10.60
2019-02-14T15:11:28.932Z,10.60
2019-02-14T15:14:01.528Z,10.60
2019-02-14T15:16:33.977Z,10.60
2019-02-14T15:19:06.223Z,10.50
2019-02-14T15:21:38.808Z,10.50
2019-02-14T15:24:11.519Z,10.60
2019-02-14T15:26:43.792Z,10.70
2019-02-14T15:29:16.109Z,10.60
2019-02-14T15:31:48.624Z,10.50
2019-02-14T15:34:21.159Z,10.50
2019-02-14T15:36:53.470Z,10.50
2019-02-14T15:39:26.036Z,10.50
2019-02-14T15:41:58.650Z,10.40
2019-02-14T15:44:31.376Z,10.40
2019-02-14T15:47:03.649Z,10.30
2019-02-14T15:49:36.054Z,10.40
2019-02-14T15:52:08.425Z,10.30
2019-02-14T15:54:40.751Z,10.30
2019-02-14T15:57:12.880Z,10.30
2019-02-14T15:59:45.593Z,10.30
2019-02-14T16:02:18.058Z,10.20
2019-02-14T16:04:51.196Z,10.20
2019-02-14T16:07:24.931Z,10.20
2019-02-14T16:09:57.241Z,10.20
2019-02-14T16:12:29.487Z,10.20
2019-02-14T16:15:01.751Z,10.20
2019-02-14T16:17:35.421Z,10.20
2019-02-14T16:20:09.708Z,10.10
2019-02-14T16:22:44.008Z,10.10
2019-02-14T16:25:16.209Z,10.10
2019-02-14T16:27:50.343Z,10.00
2019-02-14T16:30:22.765Z,10.10
2019-02-14T16:32:55.919Z,10.00
2019-02-14T16:35:28.528Z,10.00
2019-02-14T16:38:00.895Z,10.00
2019-02-14T16:40:38.497Z,9.90
2019-02-14T16:43:07.545Z,9.90
2019-02-14T16:45:40.163Z,9.90
2019-02-14T16:48:13.006Z,9.90
2019-02-14T16:50:45.134Z,9.80
2019-02-14T16:53:17.485Z,9.90
2019-02-14T16:55:49.716Z,9.80
2019-02-14T16:58:22.053Z,9.70
2019-02-14T17:00:54.612Z,9.80
2019-02-14T17:03:27.240Z,9.70
2019-02-14T17:05:59.601Z,9.60
2019-02-14T17:08:32.535Z,9.70
2019-02-14T17:11:04.776Z,9.60
2019-02-14T17:13:37.485Z,9.50
2019-02-14T17:16:09.862Z,9.60
2019-02-14T17:18:42.077Z,9.60
2019-02-14T17:21:14.321Z,9.60
2019-02-14T17:23:46.814Z,9.50
2019-02-14T17:26:19.239Z,9.50
2019-02-14T17:28:51.625Z,9.50
2019-02-14T17:31:24.188Z,9.40
2019-02-14T17:33:56.968Z,9.50
2019-02-14T17:36:29.295Z,9.40
2019-02-14T17:39:01.712Z,9.40
2019-02-14T17:41:34.158Z,9.30
2019-02-14T17:44:06.376Z,9.30
2019-02-14T17:46:38.881Z,9.20
2019-02-14T17:49:11.224Z,9.30
2019-02-14T17:51:43.537Z,9.30
2019-02-14T17:54:16.171Z,9.20
2019-02-14T17:56:48.442Z,9.30
2019-02-14T17:59:21.248Z,9.30
2019-02-14T18:01:53.728Z,9.30
2019-02-14T18:04:25.964Z,9.30
2019-02-14T18:06:58.141Z,9.20
2019-02-14T18:09:30.358Z,9.20
2019-02-14T18:12:03.101Z,9.10
2019-02-14T18:14:35.431Z,9.10
2019-02-14T18:17:07.630Z,9.00
2019-02-14T18:19:39.849Z,9.10
2019-02-14T18:22:12.137Z,9.00
2019-02-14T18:24:44.737Z,9.10
2019-02-14T18:27:17.304Z,9.10
2019-02-14T18:29:49.595Z,9.10
2019-02-14T18:32:21.798Z,9.00
2019-02-14T18:34:54.233Z,9.00
2019-02-14T18:37:26.455Z,9.00
2019-02-14T18:39:58.968Z,8.90
2019-02-14T18:42:31.516Z,9.00
2019-02-14T18:45:04.911Z,9.00
2019-02-14T18:47:39.629Z,9.00
2019-02-14T18:50:11.867Z,9.00
2019-02-14T18:52:44.121Z,8.90
2019-02-14T18:55:18.223Z,8.90
2019-02-14T18:57:50.740Z,8.90
2019-02-14T19:00:23.038Z,8.80
2019-02-14T19:02:55.271Z,8.80
2019-02-14T19:05:27.695Z,8.80
2019-02-14T19:08:00.310Z,8.90
2019-02-14T19:10:32.624Z,8.90
2019-02-14T19:13:04.921Z,8.80
2019-02-14T19:15:37.513Z,8.70
2019-02-14T19:18:09.713Z,8.70
2019-02-14T19:20:41.924Z,8.70
2019-02-14T19:23:23.515Z,8.70
2019-02-14T19:25:48.166Z,8.70
2019-02-14T19:28:20.592Z,8.60
2019-02-14T19:30:53.092Z,8.60
2019-02-14T19:33:25.621Z,8.50
2019-02-14T19:35:58.120Z,8.60
2019-02-14T19:38:30.236Z,8.60
2019-02-14T19:41:02.640Z,8.60
2019-02-14T19:43:34.845Z,8.60
2019-02-14T19:46:07.581Z,8.50
2019-02-14T19:48:39.789Z,8.50
2019-02-14T19:51:12.245Z,8.50
2019-02-14T19:53:45.095Z,8.40
2019-02-14T19:56:17.547Z,8.30
2019-02-14T19:58:49.658Z,8.50
2019-02-14T20:01:22.308Z,9.50
2019-02-14T20:03:54.499Z,8.50
2019-02-14T20:06:26.976Z,8.50
2019-02-14T20:08:59.334Z,8.30
2019-02-14T20:11:36.826Z,8.30
2019-02-14T20:14:06.292Z,8.30
2019-02-14T20:16:38.412Z,8.30
2019-02-14T21:20:30.678Z,7.40
2019-02-14T21:23:03.048Z,7.40
2019-02-14T21:25:35.263Z,7.20
2019-02-14T21:28:07.615Z,7.20
2019-02-14T21:30:39.838Z,7.30
2019-02-14T21:33:12.188Z,7.30
2019-02-14T21:35:47.210Z,7.20
2019-02-14T21:38:19.433Z,7.20
2019-02-14T21:40:51.561Z,7.20
2019-02-14T21:43:23.881Z,7.20
2019-02-14T21:45:56.218Z,7.20
2019-02-14T21:48:28.471Z,7.20
2019-02-14T21:51:00.840Z,7.20
2019-02-14T21:53:33.041Z,7.10
2019-02-14T21:56:05.393Z,6.90
2019-02-14T21:58:37.893Z,7.00
2019-02-14T22:01:11.557Z,7.00
2019-02-14T22:03:43.799Z,7.00
2019-02-14T22:06:16.200Z,7.00
2019-02-14T22:08:48.466Z,7.00
2019-02-14T22:11:20.644Z,6.90
2019-02-14T22:13:52.749Z,6.90
2019-02-14T22:16:24.947Z,6.80
2019-02-14T22:18:57.353Z,6.70
2019-02-14T22:21:29.462Z,6.70
2019-02-14T22:24:02.277Z,6.80
2019-02-14T22:26:35.060Z,6.80
2019-02-14T22:29:07.288Z,6.80
2019-02-14T22:31:39.832Z,6.70
2019-02-14T22:34:11.963Z,6.70
2019-02-14T22:36:44.354Z,6.70
2019-02-14T22:39:16.717Z,6.70
2019-02-14T22:41:49.014Z,6.60
2019-02-14T22:44:21.138Z,6.60
2019-02-14T22:46:53.570Z,6.50
2019-02-14T22:49:25.695Z,6.60
2019-02-14T22:51:57.877Z,6.40
2019-02-14T22:54:29.978Z,6.50
2019-02-14T22:57:02.284Z,6.50
2019-02-14T22:59:34.981Z,6.60
2019-02-14T23:02:07.354Z,6.60
2019-02-14T23:04:39.857Z,6.40
2019-02-14T23:07:12.241Z,6.40
2019-02-14T23:09:44.865Z,6.40
2019-02-14T23:12:17.052Z,6.50
2019-02-14T23:14:49.198Z,6.50
2019-02-14T23:17:21.748Z,6.50
2019-02-14T23:19:54.192Z,6.40
2019-02-14T23:22:26.512Z,6.30
2019-02-14T23:24:58.734Z,6.40
2019-02-14T23:27:30.921Z,6.30
2019-02-14T23:32:35.973Z,6.20
2019-02-14T23:35:08.556Z,6.10
2019-02-14T23:37:40.667Z,6.10
2019-02-14T23:40:13.594Z,5.90
2019-02-14T23:42:45.674Z,5.90
2019-02-14T23:45:17.917Z,5.90
2019-02-14T23:47:50.109Z,5.90
2019-02-14T23:50:22.425Z,6.10
2019-02-14T23:52:55.018Z,6.10
2019-02-14T23:55:27.307Z,6.00
2019-02-14T23:57:59.453Z,6.00
